createdAt,value
2022-12-31T00:01:37.401Z,76.70
2022-12-31T00:04:05.991Z,59.10
2022-12-31T00:06:36.624Z,55.00
2022-12-31T00:09:08.242Z,61.70
2022-12-31T00:11:38.347Z,66.20
2022-12-31T00:14:07.098Z,74.10
2022-12-31T00:16:40.321Z,60.40
2022-12-31T00:19:11.827Z,65.20
2022-12-31T00:21:40.368Z,60.90
2022-12-31T00:24:11.333Z,75.70
2022-12-31T00:26:39.839Z,74.50
2022-12-31T00:29:08.268Z,75.60
2022-12-31T00:31:39.343Z,76.40
2022-12-31T00:34:07.880Z,72.90
2022-12-31T00:36:39.672Z,70.60
2022-12-31T00:39:10.611Z,70.50
2022-12-31T00:41:39.584Z,72.50
2022-12-31T00:44:08.070Z,78.30
2022-12-31T00:49:03.782Z,74.20
2022-12-31T00:51:32.246Z,76.40
2022-12-31T00:54:00.793Z,72.40
2022-12-31T00:56:31.715Z,72.00
2022-12-31T00:59:00.962Z,77.60
2022-12-31T01:01:36.794Z,75.50
2022-12-31T01:04:12.690Z,78.10
2022-12-31T01:06:42.689Z,71.70
2022-12-31T01:09:14.272Z,84.20
2022-12-31T01:11:43.030Z,75.90
2022-12-31T01:14:16.008Z,66.00
2022-12-31T01:16:53.382Z,69.20
2022-12-31T01:19:28.467Z,67.30
2022-12-31T01:21:57.466Z,77.20
2022-12-31T01:24:25.982Z,74.20
2022-12-31T01:26:58.032Z,69.70
2022-12-31T01:29:28.081Z,64.30
2022-12-31T01:31:57.059Z,66.70
2022-12-31T01:34:25.586Z,75.60
2022-12-31T01:36:53.984Z,82.40
2022-12-31T01:39:22.562Z,87.70
2022-12-31T01:41:51.147Z,71.10
2022-12-31T01:44:25.866Z,71.30
2022-12-31T01:46:59.641Z,78.60
2022-12-31T01:49:41.503Z,75.90
2022-12-31T01:52:37.431Z,81.80
2022-12-31T01:55:34.864Z,75.10
2022-12-31T01:58:16.318Z,71.90
2022-12-31T02:00:46.334Z,71.60
2022-12-31T02:03:15.319Z,78.40
2022-12-31T02:05:46.705Z,74.70
2022-12-31T02:08:16.286Z,74.50
2022-12-31T02:10:44.802Z,76.00
2022-12-31T02:13:15.289Z,73.50
2022-12-31T02:16:18.698Z,81.30
2022-12-31T02:19:03.507Z,77.70
2022-12-31T02:22:19.132Z,77.80
2022-12-31T02:24:50.613Z,78.90
2022-12-31T02:28:03.239Z,51.00
2022-12-31T02:30:33.499Z,65.00
2022-12-31T02:33:25.215Z,80.20
2022-12-31T02:36:10.446Z,70.50
2022-12-31T02:38:46.886Z,77.30
2022-12-31T02:41:37.481Z,84.40
2022-12-31T02:44:33.648Z,78.30
2022-12-31T02:47:08.463Z,83.00
2022-12-31T02:50:03.054Z,80.80
2022-12-31T02:53:14.406Z,81.80
2022-12-31T02:56:11.551Z,82.60
2022-12-31T02:59:19.659Z,81.20
2022-12-31T03:02:14.385Z,79.00
2022-12-31T03:04:47.769Z,75.90
2022-12-31T03:07:24.974Z,80.50
2022-12-31T03:09:54.317Z,71.10
2022-12-31T03:12:48.179Z,77.90
2022-12-31T03:15:29.583Z,77.80
2022-12-31T03:18:09.549Z,77.10
2022-12-31T03:21:06.031Z,81.20
2022-12-31T03:23:35.843Z,82.20
2022-12-31T03:26:10.445Z,77.10
2022-12-31T03:28:48.004Z,86.50
2022-12-31T03:31:16.735Z,83.90
2022-12-31T03:33:45.345Z,76.40
2022-12-31T03:36:15.752Z,85.50
2022-12-31T03:38:48.486Z,78.60
2022-12-31T03:41:19.746Z,77.80
2022-12-31T03:43:48.214Z,82.10
2022-12-31T03:46:16.810Z,83.10
2022-12-31T03:48:45.375Z,75.60
2022-12-31T03:51:13.956Z,78.40
2022-12-31T03:53:42.436Z,75.10
2022-12-31T03:56:10.897Z,80.50
2022-12-31T03:58:39.424Z,80.90
2022-12-31T04:01:07.915Z,86.20
2022-12-31T04:03:36.632Z,76.90
2022-12-31T04:06:06.073Z,62.30
2022-12-31T04:08:34.585Z,65.10
2022-12-31T04:11:03.084Z,55.10
2022-12-31T04:13:31.699Z,62.80
2022-12-31T04:16:00.317Z,44.80
2022-12-31T04:18:28.879Z,61.60
2022-12-31T04:21:05.948Z,59.10
2022-12-31T04:23:34.470Z,83.20
2022-12-31T04:26:03.074Z,96.80
2022-12-31T04:28:31.570Z,90.90
2022-12-31T04:31:00.228Z,104.70
2022-12-31T04:33:28.803Z,95.50
2022-12-31T04:36:06.741Z,84.60
2022-12-31T04:38:35.294Z,90.60
2022-12-31T04:41:24.228Z,99.10
2022-12-31T04:43:58.548Z,101.00
2022-12-31T04:46:30.758Z,91.30
2022-12-31T04:48:59.880Z,84.30
2022-12-31T04:51:30.425Z,87.10
2022-12-31T04:53:59.104Z,87.90
2022-12-31T04:56:28.709Z,79.50
2022-12-31T04:58:57.309Z,80.80
2022-12-31T05:01:25.964Z,78.70
2022-12-31T05:03:54.559Z,86.80
2022-12-31T05:06:23.788Z,83.60
2022-12-31T05:08:52.369Z,86.30
2022-12-31T05:11:20.989Z,85.30
2022-12-31T05:13:49.543Z,81.30
2022-12-31T05:16:18.183Z,84.50
2022-12-31T05:18:46.798Z,76.10
2022-12-31T05:21:21.352Z,84.00
2022-12-31T05:23:50.385Z,83.00
2022-12-31T05:26:18.988Z,86.10
2022-12-31T05:28:47.474Z,83.40
2022-12-31T05:31:16.018Z,82.30
2022-12-31T05:33:44.604Z,81.70
2022-12-31T05:36:13.160Z,88.10
2022-12-31T05:38:42.023Z,87.10
2022-12-31T05:41:11.099Z,79.50
2022-12-31T05:43:39.580Z,81.60
2022-12-31T05:46:09.201Z,85.30
2022-12-31T05:48:37.664Z,78.70
2022-12-31T05:51:06.357Z,84.90
2022-12-31T05:53:34.940Z,82.40
2022-12-31T05:56:03.613Z,84.20
2022-12-31T05:58:32.107Z,121.20
2022-12-31T06:01:00.633Z,112.80
2022-12-31T06:03:29.320Z,107.30
2022-12-31T06:05:57.844Z,102.50
2022-12-31T06:08:26.354Z,97.30
2022-12-31T06:10:55.067Z,93.30
2022-12-31T06:13:23.662Z,86.60
2022-12-31T06:15:52.249Z,85.20
2022-12-31T06:18:20.939Z,86.20
2022-12-31T06:20:49.543Z,82.60
2022-12-31T06:23:18.173Z,85.50
2022-12-31T06:25:46.739Z,79.00
2022-12-31T06:28:20.132Z,83.80
2022-12-31T06:30:49.276Z,86.40
2022-12-31T06:33:20.479Z,83.60
2022-12-31T06:35:49.749Z,82.80
2022-12-31T06:38:18.362Z,87.30
2022-12-31T06:40:46.946Z,85.10
2022-12-31T06:43:15.775Z,85.60
2022-12-31T06:45:45.678Z,79.10
2022-12-31T06:48:14.261Z,80.90
2022-12-31T06:50:43.377Z,88.60
2022-12-31T06:53:13.551Z,79.40
2022-12-31T06:55:42.490Z,80.60
2022-12-31T06:58:15.000Z,83.70
2022-12-31T07:01:07.577Z,80.60
2022-12-31T07:03:46.065Z,79.20
2022-12-31T07:06:31.326Z,79.70
2022-12-31T07:09:21.662Z,80.70
2022-12-31T07:12:11.596Z,65.40
2022-12-31T07:15:09.539Z,83.00
2022-12-31T07:18:15.287Z,85.80
2022-12-31T07:20:44.097Z,59.80
2022-12-31T07:23:12.997Z,70.40
2022-12-31T07:25:51.300Z,77.60
2022-12-31T07:29:09.639Z,68.60
2022-12-31T07:32:21.263Z,74.10
2022-12-31T07:35:11.030Z,54.30
2022-12-31T07:38:03.948Z,75.10
2022-12-31T07:41:37.596Z,66.30
2022-12-31T07:44:43.707Z,62.10
2022-12-31T07:47:27.883Z,86.50
2022-12-31T07:49:57.915Z,52.00
2022-12-31T07:52:27.104Z,74.10
2022-12-31T07:54:55.716Z,63.30
2022-12-31T07:57:31.359Z,63.30
2022-12-31T08:00:13.906Z,70.30
2022-12-31T08:03:14.555Z,64.80
2022-12-31T08:06:09.807Z,78.70
2022-12-31T08:09:41.529Z,56.10
2022-12-31T08:12:10.239Z,81.00
2022-12-31T08:14:47.942Z,61.00
2022-12-31T08:17:19.103Z,60.60
2022-12-31T08:19:48.193Z,77.60
2022-12-31T08:22:39.727Z,77.00
2022-12-31T08:25:32.761Z,60.80
2022-12-31T08:28:44.825Z,76.30
2022-12-31T08:32:03.827Z,64.50
2022-12-31T08:35:23.696Z,55.70
2022-12-31T08:38:18.489Z,76.10
2022-12-31T08:41:05.433Z,70.00
2022-12-31T08:44:11.091Z,72.20
2022-12-31T08:47:03.693Z,64.50
2022-12-31T08:49:35.156Z,59.60
2022-12-31T08:52:04.176Z,66.30
2022-12-31T08:54:33.081Z,75.10
2022-12-31T08:57:29.379Z,72.60
2022-12-31T09:00:11.497Z,61.50
2022-12-31T09:03:13.285Z,80.20
2022-12-31T09:06:15.265Z,64.80
2022-12-31T09:09:17.741Z,79.10
2022-12-31T09:12:19.256Z,64.70
2022-12-31T09:15:07.065Z,68.40
2022-12-31T09:17:47.738Z,70.60
2022-12-31T09:20:41.776Z,72.00
2022-12-31T09:23:13.575Z,78.50
2022-12-31T09:26:37.895Z,73.40
2022-12-31T09:29:30.914Z,75.90
2022-12-31T09:35:37.381Z,60.70
2022-12-31T09:38:52.656Z,73.60
2022-12-31T09:41:40.221Z,63.10
2022-12-31T09:44:52.117Z,66.70
2022-12-31T09:47:46.360Z,64.90
2022-12-31T09:50:46.612Z,64.50
2022-12-31T09:53:56.809Z,64.50
2022-12-31T09:56:47.947Z,58.50
2022-12-31T09:59:46.337Z,42.70
2022-12-31T10:02:59.778Z,66.50
2022-12-31T10:05:46.204Z,59.40
2022-12-31T10:08:41.178Z,54.20
2022-12-31T10:11:48.079Z,65.20
2022-12-31T10:14:46.912Z,55.00
2022-12-31T10:17:30.924Z,56.80
2022-12-31T10:21:17.223Z,46.90
2022-12-31T10:24:13.509Z,58.70
2022-12-31T10:26:53.003Z,55.10
2022-12-31T10:29:57.641Z,46.60
2022-12-31T10:32:35.264Z,52.00
2022-12-31T10:35:24.286Z,50.50
2022-12-31T10:38:34.430Z,54.10
2022-12-31T10:41:29.134Z,58.70
2022-12-31T10:44:54.618Z,48.90
2022-12-31T10:48:16.975Z,53.40
2022-12-31T10:51:18.514Z,55.70
2022-12-31T10:54:19.161Z,57.70
2022-12-31T10:57:18.321Z,50.20
2022-12-31T11:00:15.868Z,62.40
2022-12-31T11:02:57.502Z,51.90
2022-12-31T11:05:47.799Z,53.60
2022-12-31T11:08:56.800Z,51.10
2022-12-31T11:11:38.905Z,51.50
2022-12-31T11:14:26.179Z,50.30
2022-12-31T11:17:25.268Z,50.00
2022-12-31T11:20:25.288Z,42.80
2022-12-31T11:23:21.420Z,53.70
2022-12-31T11:26:11.591Z,53.80
2022-12-31T11:29:24.673Z,40.40
2022-12-31T11:32:14.632Z,41.80
2022-12-31T11:34:48.979Z,54.90
2022-12-31T11:37:42.685Z,61.60
2022-12-31T11:40:20.431Z,49.70
2022-12-31T11:43:41.516Z,86.40
2022-12-31T11:47:14.193Z,76.50
2022-12-31T11:49:48.744Z,61.10
2022-12-31T11:52:39.027Z,57.50
2022-12-31T11:55:47.774Z,85.00
2022-12-31T11:58:28.877Z,104.70
2022-12-31T12:01:11.915Z,49.50
2022-12-31T12:03:47.815Z,49.80
2022-12-31T12:06:24.132Z,47.40
2022-12-31T12:08:59.849Z,57.90
2022-12-31T12:11:33.302Z,41.40
2022-12-31T12:14:02.159Z,45.30
2022-12-31T12:16:31.713Z,45.90
2022-12-31T12:19:16.839Z,45.90
2022-12-31T12:21:49.607Z,48.10
2022-12-31T12:24:25.672Z,55.00
2022-12-31T12:26:54.747Z,51.80
2022-12-31T12:29:29.066Z,50.00
2022-12-31T12:32:06.869Z,53.90
2022-12-31T12:34:43.126Z,49.80
2022-12-31T12:37:36.371Z,44.50
2022-12-31T12:40:19.899Z,48.00
2022-12-31T12:42:52.608Z,47.10
2022-12-31T12:45:25.543Z,51.70
2022-12-31T12:48:02.333Z,53.70
2022-12-31T12:50:46.136Z,55.10
2022-12-31T12:53:59.269Z,52.80
2022-12-31T12:56:47.340Z,49.90
2022-12-31T12:59:45.483Z,46.20
2022-12-31T13:02:48.917Z,48.20
2022-12-31T13:05:32.921Z,47.10
2022-12-31T13:08:32.449Z,52.50
2022-12-31T13:11:43.217Z,51.50
2022-12-31T13:14:27.723Z,53.50
2022-12-31T13:16:59.395Z,46.50
2022-12-31T13:19:46.889Z,50.90
2022-12-31T13:22:18.427Z,50.20
2022-12-31T13:25:31.433Z,46.00
2022-12-31T13:28:14.079Z,46.70
2022-12-31T13:30:54.793Z,49.50
2022-12-31T13:33:33.512Z,48.10
2022-12-31T13:36:10.374Z,49.70
2022-12-31T13:38:50.910Z,43.70
2022-12-31T13:41:42.038Z,45.30
2022-12-31T13:44:46.012Z,51.90
2022-12-31T13:47:33.028Z,46.10
2022-12-31T13:50:15.215Z,46.30
2022-12-31T13:52:56.993Z,44.00
2022-12-31T13:55:38.516Z,51.60
2022-12-31T13:58:45.060Z,49.50
2022-12-31T14:01:34.055Z,45.10
2022-12-31T14:04:51.371Z,49.00
2022-12-31T14:07:22.528Z,48.90
2022-12-31T14:09:51.484Z,42.90
2022-12-31T14:12:58.786Z,49.60
2022-12-31T14:15:58.286Z,45.10
2022-12-31T14:19:01.334Z,50.40
2022-12-31T14:21:43.017Z,48.80
2022-12-31T14:24:37.420Z,50.60
2022-12-31T14:27:13.987Z,50.40
2022-12-31T14:30:01.754Z,56.00
2022-12-31T14:33:04.703Z,55.60
2022-12-31T14:36:24.977Z,54.80
2022-12-31T14:39:54.280Z,59.20
2022-12-31T14:42:38.979Z,56.60
2022-12-31T14:45:16.422Z,52.50
2022-12-31T14:47:56.659Z,53.10
2022-12-31T14:50:31.502Z,54.00
2022-12-31T14:52:59.997Z,59.30
2022-12-31T14:55:40.858Z,55.30
2022-12-31T14:58:42.697Z,58.80
2022-12-31T15:01:19.210Z,52.30
2022-12-31T15:03:50.738Z,58.00
2022-12-31T15:06:19.205Z,52.50
2022-12-31T15:08:55.953Z,58.70
2022-12-31T15:12:09.260Z,60.10
2022-12-31T15:15:21.634Z,56.80
2022-12-31T15:18:37.826Z,62.70
2022-12-31T15:21:49.173Z,62.20
2022-12-31T15:24:27.759Z,65.30
2022-12-31T15:27:06.877Z,66.50
2022-12-31T15:29:45.654Z,73.40
2022-12-31T15:32:31.580Z,72.80
2022-12-31T15:35:23.389Z,71.00
2022-12-31T15:38:10.642Z,70.00
2022-12-31T15:40:50.669Z,70.40
2022-12-31T15:43:25.408Z,68.80
2022-12-31T15:52:03.808Z,87.80
2022-12-31T15:54:54.860Z,99.70
2022-12-31T15:57:42.196Z,92.90
2022-12-31T16:00:24.721Z,95.70
2022-12-31T16:02:55.554Z,90.60
2022-12-31T16:05:28.239Z,118.90
2022-12-31T16:10:31.177Z,86.20
2022-12-31T16:13:00.261Z,84.60
2022-12-31T16:15:32.947Z,79.10
2022-12-31T16:18:20.648Z,102.50
2022-12-31T16:20:52.140Z,104.40
2022-12-31T16:23:28.030Z,107.50
2022-12-31T16:26:01.741Z,102.00
2022-12-31T16:28:33.600Z,105.00
2022-12-31T16:31:14.289Z,95.20
2022-12-31T16:33:42.859Z,94.50
2022-12-31T16:36:23.601Z,100.40
2022-12-31T16:42:29.477Z,96.20
2022-12-31T16:44:58.052Z,114.10
2022-12-31T16:47:40.543Z,117.10
2022-12-31T16:50:18.455Z,129.60
2022-12-31T16:52:51.319Z,107.60
2022-12-31T16:55:30.506Z,109.00
2022-12-31T16:58:20.078Z,101.80
2022-12-31T17:00:50.797Z,96.80
2022-12-31T17:03:24.400Z,102.70
2022-12-31T17:06:09.753Z,101.60
2022-12-31T17:08:56.177Z,88.30
2022-12-31T17:11:31.007Z,112.40
2022-12-31T17:14:08.632Z,101.30
2022-12-31T17:16:45.347Z,92.60
2022-12-31T17:19:47.747Z,90.70
2022-12-31T17:22:33.149Z,86.20
2022-12-31T17:25:26.919Z,82.30
2022-12-31T17:27:58.995Z,80.70
2022-12-31T17:30:31.519Z,82.50
2022-12-31T17:33:09.744Z,73.70
2022-12-31T17:35:44.210Z,61.40
2022-12-31T17:38:21.937Z,64.20
2022-12-31T17:41:22.533Z,62.10
2022-12-31T17:43:56.690Z,72.00
2022-12-31T17:46:26.787Z,67.20
2022-12-31T17:49:03.044Z,76.60
2022-12-31T17:51:31.458Z,72.00
2022-12-31T17:54:01.021Z,71.80
2022-12-31T17:56:29.551Z,82.10
2022-12-31T17:58:58.093Z,78.50
2022-12-31T18:01:26.712Z,88.80
2022-12-31T18:03:56.964Z,78.50
2022-12-31T18:06:27.293Z,95.90
2022-12-31T18:08:55.651Z,105.00
2022-12-31T18:11:25.261Z,110.30
2022-12-31T18:13:54.989Z,98.60
2022-12-31T18:16:23.755Z,98.40
2022-12-31T18:18:52.278Z,93.20
2022-12-31T18:21:28.454Z,89.60
2022-12-31T18:26:25.566Z,75.00
2022-12-31T18:28:54.418Z,71.70
2022-12-31T18:31:31.284Z,76.20
2022-12-31T18:34:00.189Z,70.70
2022-12-31T18:36:29.178Z,70.80
2022-12-31T18:38:57.737Z,70.20
2022-12-31T18:41:28.932Z,66.90
2022-12-31T18:43:57.447Z,73.80
2022-12-31T18:46:27.144Z,67.70
2022-12-31T18:48:55.628Z,77.10
2022-12-31T18:51:31.361Z,67.20
2022-12-31T18:54:04.765Z,75.30
2022-12-31T18:56:33.191Z,78.10
2022-12-31T18:59:02.884Z,79.60
2022-12-31T19:01:39.872Z,79.40
2022-12-31T19:04:27.008Z,73.50
2022-12-31T19:06:56.807Z,75.30
2022-12-31T19:12:15.109Z,74.80
2022-12-31T19:14:43.713Z,80.00
2022-12-31T19:17:12.172Z,85.80
2022-12-31T19:19:40.905Z,82.20
2022-12-31T19:22:15.436Z,77.60
2022-12-31T19:24:43.924Z,86.50
2022-12-31T19:27:12.478Z,79.40
2022-12-31T19:29:41.032Z,92.20
2022-12-31T19:32:09.498Z,80.00
2022-12-31T19:34:38.125Z,85.30
2022-12-31T19:37:06.560Z,79.50
2022-12-31T19:39:35.047Z,84.10
2022-12-31T19:42:03.704Z,88.80
2022-12-31T19:44:32.145Z,91.90
2022-12-31T19:47:00.558Z,99.20
2022-12-31T19:49:29.052Z,96.30
2022-12-31T19:51:57.524Z,91.90
2022-12-31T19:54:26.204Z,91.20
2022-12-31T19:56:54.826Z,74.10
2022-12-31T19:59:23.400Z,82.20
2022-12-31T20:01:51.901Z,68.70
2022-12-31T20:04:21.861Z,67.70
2022-12-31T20:06:50.317Z,63.60
2022-12-31T20:09:19.010Z,84.40
2022-12-31T20:11:47.500Z,81.70
2022-12-31T20:14:16.333Z,92.10
2022-12-31T20:16:45.292Z,104.50
2022-12-31T20:19:14.019Z,102.40
2022-12-31T20:21:44.688Z,97.50
2022-12-31T20:24:13.253Z,95.50
2022-12-31T20:26:41.836Z,99.60
2022-12-31T20:29:10.231Z,100.80
2022-12-31T20:31:39.614Z,101.10
2022-12-31T20:34:10.457Z,96.00
2022-12-31T20:36:39.986Z,92.90
2022-12-31T20:39:08.669Z,97.30
2022-12-31T20:41:37.277Z,93.30
2022-12-31T20:44:06.749Z,88.20
2022-12-31T20:46:35.833Z,87.50
2022-12-31T20:49:05.602Z,90.20
2022-12-31T20:51:35.468Z,84.90
2022-12-31T20:54:10.913Z,88.50
2022-12-31T20:56:41.749Z,88.00
2022-12-31T20:59:10.508Z,89.60
2022-12-31T21:02:11.673Z,84.20
2022-12-31T21:04:28.033Z,89.40
2022-12-31T21:06:56.753Z,96.80
2022-12-31T21:09:25.337Z,97.20
2022-12-31T21:12:41.264Z,93.50
2022-12-31T21:15:13.031Z,97.80
2022-12-31T21:17:41.518Z,90.40
2022-12-31T21:20:10.480Z,94.30
2022-12-31T21:22:39.016Z,94.90
2022-12-31T21:25:07.965Z,100.70
2022-12-31T21:27:36.624Z,99.10
2022-12-31T21:30:21.111Z,105.10
2022-12-31T21:32:49.735Z,101.10
2022-12-31T21:38:07.913Z,95.50
2022-12-31T21:40:36.364Z,96.60
2022-12-31T21:43:04.937Z,95.10
2022-12-31T21:45:34.508Z,90.10
2022-12-31T21:48:23.517Z,82.00
2022-12-31T21:53:48.257Z,101.50
2022-12-31T21:56:18.857Z,95.50
2022-12-31T21:59:15.850Z,97.60
2022-12-31T22:02:34.439Z,90.80
2022-12-31T22:05:09.113Z,94.20
2022-12-31T22:07:43.473Z,97.00
2022-12-31T22:10:11.982Z,110.80
2022-12-31T22:12:40.434Z,130.80
2022-12-31T22:15:15.546Z,132.70
2022-12-31T22:17:44.647Z,139.10
2022-12-31T22:20:28.825Z,148.90
2022-12-31T22:22:57.621Z,156.50
2022-12-31T22:25:26.159Z,152.00
2022-12-31T22:28:27.416Z,145.10
2022-12-31T22:30:43.093Z,106.40
2022-12-31T22:33:11.429Z,123.90
2022-12-31T22:35:40.078Z,127.90
2022-12-31T22:38:12.158Z,115.70
2022-12-31T22:43:09.510Z,98.80
2022-12-31T22:45:37.894Z,133.60
2022-12-31T22:48:06.721Z,131.40
2022-12-31T22:50:35.232Z,157.70
2022-12-31T22:53:03.871Z,175.90
2022-12-31T22:55:32.784Z,180.50
2022-12-31T22:58:01.254Z,177.30
2022-12-31T23:00:41.775Z,143.70
2022-12-31T23:03:10.329Z,128.70
2022-12-31T23:05:38.939Z,124.20
2022-12-31T23:08:17.199Z,123.00
2022-12-31T23:11:00.952Z,130.70
2022-12-31T23:14:00.485Z,135.40
2022-12-31T23:16:48.711Z,131.70
2022-12-31T23:19:35.478Z,125.90
2022-12-31T23:22:22.240Z,121.80
2022-12-31T23:24:50.778Z,111.10
2022-12-31T23:27:19.322Z,117.20
2022-12-31T23:29:47.878Z,97.30
2022-12-31T23:32:17.052Z,92.00
2022-12-31T23:34:46.838Z,92.70
2022-12-31T23:37:15.762Z,88.50
2022-12-31T23:39:44.327Z,88.70
2022-12-31T23:42:12.750Z,84.00
2022-12-31T23:44:41.260Z,83.60
2022-12-31T23:47:10.136Z,90.10
2022-12-31T23:49:38.509Z,91.40
2022-12-31T23:52:06.896Z,93.00
2022-12-31T23:54:35.301Z,102.80
2022-12-31T23:57:03.881Z,105.00
2022-12-31T23:59:32.356Z,110.10
